Time;durP1;ratioP1;P1;durP2;ratioP2;P2;SDS_P1;SDS_P2;PMS_P1;PMS_P2;Temp;Humidity;BMP_temperature;BMP_pressure;BME280_temperature;BME280_humidity;BME280_pressure;Samples;Min_cycle;Max_cycle;Signal;HPM_P1;HPM_P2
2022/01/04 00:01:53;;;;;;;18.48;11.63;;;;;;;8.44;100.00;99169.34;4826221;29;20118;-89
2022/01/04 00:08:27;;;;;;;17.50;11.98;;;;;;;8.77;100.00;99200.84;4825794;29;20525;-89
2022/01/04 00:11:20;;;;;;;17.83;11.85;;;;;;;8.50;100.00;99147.88;4823793;29;20137;-89
2022/01/04 00:17:22;;;;;;;20.67;11.88;;;;;;;8.59;100.00;99160.53;4816937;29;20424;-88
2022/01/04 00:20:47;;;;;;;21.38;13.45;;;;;;;8.61;100.00;99156.03;4801878;29;20070;-89
2022/01/04 00:24:17;;;;;;;19.80;13.93;;;;;;;8.59;100.00;99157.91;4826085;29;20140;-89
2022/01/04 00:47:10;;;;;;;16.65;11.85;;;;;;;8.69;100.00;99100.13;4861062;29;20053;-89
2022/01/04 00:49:41;;;;;;;17.38;11.00;;;;;;;8.38;100.00;99045.72;4867228;29;20048;-90
2022/01/04 00:52:17;;;;;;;16.65;11.93;;;;;;;8.39;100.00;99050.91;4876472;29;20059;-90
2022/01/04 00:55:14;;;;;;;14.57;10.13;;;;;;;8.59;100.00;99073.47;4870856;29;20050;-89
2022/01/04 00:57:43;;;;;;;15.73;10.40;;;;;;;8.37;100.00;99031.66;4867903;29;20049;-89
2022/01/04 01:00:17;;;;;;;16.50;10.20;;;;;;;8.53;100.00;99050.06;4860378;29;20145;-89
2022/01/04 01:02:53;;;;;;;14.95;10.35;;;;;;;8.43;100.00;99025.19;4864041;29;20067;-89
2022/01/04 01:05:25;;;;;;;14.52;10.55;;;;;;;8.63;100.00;99068.84;4858299;29;20041;-89
2022/01/04 01:07:53;;;;;;;12.40;9.57;;;;;;;8.68;100.00;99059.69;4850803;29;20058;-87
2022/01/04 01:10:43;;;;;;;14.55;10.13;;;;;;;8.65;100.00;99046.72;4849136;29;20048;-90
2022/01/04 01:13:15;;;;;;;15.30;10.68;;;;;;;8.60;100.00;99032.09;4866739;29;20053;-89
2022/01/04 01:15:47;;;;;;;16.95;11.18;;;;;;;8.76;100.00;99054.81;4864708;29;20098;-89
2022/01/04 01:18:23;;;;;;;12.88;9.73;;;;;;;8.44;100.00;98992.59;4851553;29;20057;-88
2022/01/04 01:20:54;;;;;;;14.85;11.02;;;;;;;8.78;100.00;99047.66;4864454;29;20494;-88
2022/01/04 01:23:24;;;;;;;14.98;11.00;;;;;;;8.65;100.00;99022.97;4859420;29;20050;-88
2022/01/04 01:25:54;;;;;;;17.88;11.15;;;;;;;8.66;100.00;99018.50;4861258;29;20498;-89
2022/01/04 01:28:28;;;;;;;15.45;10.63;;;;;;;8.58;100.00;99011.06;4853305;29;20068;-89
2022/01/04 01:30:58;;;;;;;16.25;11.57;;;;;;;8.46;100.00;98974.88;4841146;29;20684;-89
2022/01/04 01:33:28;;;;;;;15.20;11.70;;;;;;;8.79;100.00;99027.41;4859629;29;20072;-89
2022/01/04 01:36:03;;;;;;;15.30;11.18;;;;;;;8.78;100.00;99021.28;4861031;29;20053;-89
2022/01/04 01:38:37;;;;;;;16.20;10.60;;;;;;;8.77;100.00;99005.53;4855768;29;20069;-88
2022/01/04 01:41:06;;;;;;;15.43;9.40;;;;;;;8.81;100.00;99020.25;4859335;29;20189;-89
2022/01/04 01:43:47;;;;;;;14.52;9.38;;;;;;;8.63;100.00;98964.16;4857012;29;20080;-88
2022/01/04 01:46:30;;;;;;;16.20;9.52;;;;;;;8.85;100.00;98997.13;4863124;29;20529;-92
2022/01/04 01:48:59;;;;;;;12.85;9.00;;;;;;;8.83;100.00;98999.84;4859609;29;20533;-89
2022/01/04 01:51:28;;;;;;;13.48;9.10;;;;;;;8.51;100.00;98924.47;4862616;29;20136;-89
2022/01/04 01:53:58;;;;;;;13.85;8.77;;;;;;;8.68;100.00;98956.78;4848543;29;20083;-89
2022/01/04 01:56:26;;;;;;;11.87;8.80;;;;;;;8.64;100.00;98938.63;4871098;29;20129;-90
2022/01/04 01:59:01;;;;;;;12.90;8.63;;;;;;;8.83;100.00;98965.53;4859887;29;20119;-89
2022/01/04 02:01:35;;;;;;;11.77;8.40;;;;;;;8.65;100.00;98927.13;4868159;29;20140;-90
2022/01/04 02:04:25;;;;;;;10.27;7.30;;;;;;;8.55;100.00;98908.34;4863648;29;20060;-90
2022/01/04 02:07:20;;;;;;;12.55;6.88;;;;;;;8.76;100.00;98919.38;4866081;29;20518;-90
2022/01/04 02:10:11;;;;;;;9.82;6.68;;;;;;;8.71;100.00;98917.00;4862253;29;20409;-90
2022/01/04 02:13:07;;;;;;;10.50;7.68;;;;;;;8.81;100.00;98905.91;4854280;29;20068;-90
2022/01/04 02:15:52;;;;;;;10.93;6.97;;;;;;;8.72;100.00;98904.66;4862625;29;20141;-90
2022/01/04 02:18:27;;;;;;;9.55;6.03;;;;;;;8.57;100.00;98871.31;4859990;29;20122;-89
2022/01/04 02:22:00;;;;;;;9.18;6.60;;;;;;;8.59;100.00;98875.56;4858404;29;20054;-90
2022/01/04 02:25:29;;;;;;;;;;;;;;;;;;;;;
2022/01/04 02:29:08;;;;;;;8.75;6.10;;;;;;;8.59;100.00;98828.06;4787052;29;20045;-91
2022/01/04 02:33:00;;;;;;;10.02;6.38;;;;;;;8.74;100.00;98842.09;4717350;30;20111;-91
2022/01/04 02:40:03;;;;;;;8.85;5.45;;;;;;;9.01;100.00;98863.22;4737646;30;20182;-91
2022/01/04 03:28:40;;;;;;;10.40;7.75;;;;;;;9.20;100.00;98765.13;4836833;29;20050;-91
2022/01/04 03:31:44;;;;;;;10.13;6.93;;;;;;;9.30;100.00;98766.19;4844537;29;20053;-89
2022/01/04 03:38:31;;;;;;;7.38;6.38;;;;;;;9.04;100.00;98699.31;4769779;30;20539;-90
2022/01/04 03:42:50;;;;;;;9.23;5.70;;;;;;;9.43;100.00;98746.81;4668867;30;20427;-91
2022/01/04 03:45:40;;;;;;;7.13;5.47;;;;;;;9.14;100.00;98693.28;4614453;31;20056;-90
2022/01/04 03:48:30;;;;;;;;;;;;;;;;;;;;;
2022/01/04 03:51:48;;;;;;;9.30;5.68;;;;;;;9.28;100.00;98683.59;4710337;30;20057;-91
2022/01/04 03:55:16;;;;;;;9.43;5.47;;;;;;;9.50;100.00;98711.06;4685273;30;20057;-90
2022/01/04 03:58:10;;;;;;;7.60;5.22;;;;;;;9.49;100.00;98716.44;4719885;30;20079;-91
2022/01/04 04:01:15;;;;;;;7.47;5.38;;;;;;;9.48;100.00;98697.09;4785498;29;20059;-89
2022/01/04 04:11:48;;;;;;;7.60;5.78;;;;;;;9.50;100.00;98674.06;4630624;30;20092;-90
2022/01/04 04:15:03;;;;;;;7.55;5.28;;;;;;;9.40;100.00;98641.34;4598715;30;20097;-90
2022/01/04 04:18:26;;;;;;;8.98;6.07;;;;;;;9.53;100.00;98656.31;4894355;24;20052;-91
2022/01/04 04:21:52;;;;;;;10.32;6.28;;;;;;;9.50;100.00;98647.66;4800633;29;20050;-90
2022/01/04 04:24:44;;;;;;;9.20;6.45;;;;;;;9.33;100.00;98611.00;4823086;29;20647;-90
2022/01/04 04:27:44;;;;;;;11.57;6.40;;;;;;;9.22;100.00;98588.94;4821710;29;20057;-90
2022/01/04 04:35:04;;;;;;;9.95;6.90;;;;;;;9.52;100.00;98625.56;4761200;30;20126;-90
2022/01/04 04:38:34;;;;;;;8.07;6.13;;;;;;;9.58;100.00;98628.63;4716295;30;20101;-90
2022/01/04 04:42:24;;;;;;;8.85;6.22;;;;;;;9.58;100.00;98625.13;4766809;30;20096;-91
2022/01/04 04:48:27;;;;;;;9.60;6.53;;;;;;;9.36;100.00;98592.28;5167922;24;20052;-90
2022/01/04 04:52:15;;;;;;;11.43;7.00;;;;;;;9.53;100.00;98614.03;4897443;29;20063;-91
2022/01/04 07:36:34;;;;;;;;;;;;;;;;;;;;;
2022/01/04 07:39:33;;;;;;;6.32;3.75;;;;;;;7.37;100.00;98473.97;4842759;29;20177;-87
2022/01/04 07:42:06;;;;;;;4.88;3.20;;;;;;;7.32;100.00;98473.41;4842487;29;20114;-87
2022/01/04 07:45:02;;;;;;;5.87;2.83;;;;;;;7.08;100.00;98438.97;4847362;29;20045;-88
2022/01/04 07:48:19;;;;;;;4.57;3.03;;;;;;;7.42;100.00;98497.34;4843795;29;20057;-88
2022/01/04 07:51:39;;;;;;;3.85;2.25;;;;;;;7.40;100.00;98493.00;4825935;29;20463;-88
2022/01/04 07:55:08;;;;;;;2.83;1.83;;;;;;;7.38;100.00;98487.03;4789291;29;20066;-89
2022/01/04 08:02:46;;;;;;;1.75;1.25;;;;;;;7.29;100.00;98478.84;4811612;29;20520;-88
2022/01/04 08:09:11;;;;;;;2.65;1.20;;;;;;;7.31;100.00;98450.66;4825570;29;20057;-88
2022/01/04 08:13:00;;;;;;;;;;;;;;;;;;;;;
2022/01/04 08:16:17;;;;;;;1.95;1.33;;;;;;;7.72;100.00;98461.94;4828256;29;20054;-87
2022/01/04 08:19:10;;;;;;;1.55;0.95;;;;;;;7.49;100.00;98462.63;4850884;29;20053;-88
2022/01/04 08:22:17;;;;;;;1.67;1.08;;;;;;;7.19;100.00;98414.59;4838404;29;20061;-88
2022/01/04 08:29:10;;;;;;;1.10;0.90;;;;;;;7.12;100.00;98427.28;4772207;30;20051;-88
2022/01/04 08:32:53;;;;;;;1.17;0.77;;;;;;;6.87;100.00;98393.81;4778233;29;20055;-88
2022/01/04 08:35:49;;;;;;;1.65;0.90;;;;;;;7.27;100.00;98455.25;4751033;30;20048;-89
2022/01/04 08:39:28;;;;;;;3.53;1.20;;;;;;;7.24;100.00;98444.91;4761700;30;20064;-89
2022/01/04 08:43:19;;;;;;;1.25;0.80;;;;;;;7.11;100.00;98417.69;4761840;30;20063;-90
2022/01/04 08:46:42;;;;;;;;;;;;;;;;;;;;;
2022/01/04 08:57:29;;;;;;;;;;;;;;;;;;;;;
2022/01/04 09:04:57;;;;;;;;;;;;;;;;;;;;;
2022/01/04 09:13:42;;;;;;;2.63;1.00;;;;;;;6.99;100.00;98366.72;4990102;24;20056;-88
2022/01/04 09:24:01;;;;;;;;;;;;;;;;;;;;;
2022/01/04 11:42:52;;;;;;;1.52;0.60;;;;;;;6.59;100.00;98502.53;853976;24;20349;-87
2022/01/04 11:45:52;;;;;;;0.63;0.52;;;;;;;6.41;100.00;98484.41;4878497;29;20052;-87
2022/01/04 11:48:49;;;;;;;0.75;0.55;;;;;;;6.20;100.00;98454.97;4874299;29;20048;-88
2022/01/04 11:51:35;;;;;;;1.50;0.60;;;;;;;6.56;100.00;98510.59;4876903;29;20056;-88
2022/01/04 11:54:38;;;;;;;0.73;0.60;;;;;;;6.59;100.00;98509.59;4868519;29;20060;-88
2022/01/04 11:58:22;;;;;;;0.77;0.60;;;;;;;6.26;100.00;98459.88;4860469;29;20049;-88
2022/01/04 12:01:31;;;;;;;0.88;0.50;;;;;;;6.48;100.00;98515.47;4815665;29;20055;-87
2022/01/04 12:04:54;;;;;;;0.98;0.55;;;;;;;6.48;100.00;98523.34;4879294;29;20056;-88
2022/01/04 12:11:34;;;;;;;1.25;0.63;;;;;;;6.39;100.00;98525.69;4831811;29;20080;-87
2022/01/04 13:12:41;;;;;;;3.95;1.65;;;;;;;6.18;100.00;98540.94;4844958;29;20114;-92
2022/01/04 13:46:27;;;;;;;4.93;2.03;;;;;;;6.26;100.00;98544.00;5226880;24;20062;-88
2022/01/04 13:49:07;;;;;;;3.95;2.20;;;;;;;6.16;100.00;98513.91;4838816;29;20118;-90
2022/01/04 13:52:36;;;;;;;4.53;2.10;;;;;;;6.44;100.00;98569.19;4798722;29;20051;-94
2022/01/04 14:41:40;;;;;;;6.20;4.15;;;;;;;6.28;100.00;98644.63;4856922;29;20062;-87
2022/01/04 14:44:20;;;;;;;6.07;4.10;;;;;;;6.18;100.00;98619.78;4859673;29;20497;-87
2022/01/04 14:47:02;;;;;;;;;;;;;;;;;;;;;
2022/01/04 14:50:12;;;;;;;5.32;4.07;;;;;;;6.13;100.00;98621.84;4842796;29;20053;-86
2022/01/04 14:53:25;;;;;;;7.22;5.15;;;;;;;6.13;100.00;98624.47;4835452;29;20422;-89
2022/01/04 15:02:48;;;;;;;6.60;4.75;;;;;;;6.37;100.00;98685.31;4883274;29;20100;-91
2022/01/04 15:05:23;;;;;;;8.27;4.85;;;;;;;6.12;100.00;98633.31;4900397;29;20112;-92
2022/01/04 15:07:52;;;;;;;;;;;;;;;6.37;100.00;98666.91;4891916;29;20061;-92
2022/01/04 15:10:23;;;;;;;;;;;;;;;6.38;100.00;98663.34;4891703;29;19932;-91
2022/01/04 15:12:54;;;;;;;6.88;4.38;;;;;;;6.26;100.00;98638.63;4886444;29;19924;-91
2022/01/04 15:15:26;;;;;;;6.47;4.38;;;;;;;6.19;100.00;98637.25;4881817;29;20056;-91
2022/01/04 15:18:02;;;;;;;7.57;4.78;;;;;;;6.29;100.00;98677.88;4891798;29;20060;-91
2022/01/04 15:20:32;;;;;;;7.72;4.57;;;;;;;6.12;100.00;98638.56;4887125;29;20044;-90
2022/01/04 15:23:20;;;;;;;5.17;4.13;;;;;;;6.32;100.00;98677.66;4840708;29;20061;-91
2022/01/04 15:25:54;;;;;;;6.05;4.30;;;;;;;6.13;100.00;98662.13;4876991;29;20494;-92
2022/01/04 15:28:30;;;;;;;6.95;4.20;;;;;;;5.95;100.00;98624.59;4883670;29;20071;-91
2022/01/04 16:48:01;;;;;;;;;;;;;;;;;;;;;
2022/01/04 16:59:23;;;;;;;4.03;1.63;;;;;;;6.26;100.00;98749.84;4735914;30;20056;-94
2022/01/04 17:02:13;;;;;;;4.03;1.48;;;;;;;5.84;100.00;98684.69;4822487;29;20451;-93
2022/01/04 17:05:22;;;;;;;;;;;;;;;;;;;;;
2022/01/04 17:24:06;;;;;;;2.78;1.98;;;;;;;6.12;100.00;98715.63;5174321;23;20468;-92
2022/01/04 17:26:38;;;;;;;3.33;1.83;;;;;;;6.03;100.00;98696.88;4869951;29;20078;-90
2022/01/04 17:29:05;;;;;;;3.80;2.05;;;;;;;5.89;100.00;98666.94;4861083;29;20053;-90
2022/01/04 17:32:11;;;;;;;5.05;2.20;;;;;;;6.00;100.00;98692.63;4861807;29;20064;-93
2022/01/04 17:34:41;;;;;;;4.38;1.90;;;;;;;6.17;100.00;98715.34;4841844;29;20049;-90
2022/01/04 17:37:29;;;;;;;3.38;1.60;;;;;;;6.14;100.00;98707.66;4854611;29;20053;-92
2022/01/04 17:40:25;;;;;;;3.30;2.10;;;;;;;5.72;100.00;98646.00;4839641;29;20132;-90
2022/01/04 17:42:54;;;;;;;2.80;1.63;;;;;;;6.12;100.00;98706.88;4858514;29;20054;-92
2022/01/04 17:45:29;;;;;;;3.28;1.65;;;;;;;5.91;100.00;98672.97;4838152;29;20059;-92
2022/01/04 17:47:57;;;;;;;3.92;2.05;;;;;;;5.98;100.00;98682.19;4842787;29;20056;-90
2022/01/04 17:50:35;;;;;;;3.65;1.50;;;;;;;5.99;100.00;98691.78;4844609;29;20599;-91
2022/01/04 18:14:00;;;;;;;;;;;;;;;;;;;;;
2022/01/04 18:16:41;;;;;;;4.63;1.90;;;;;;;5.79;100.00;98647.34;4882223;29;20041;-91
2022/01/04 18:19:22;;;;;;;2.50;2.00;;;;;;;5.95;100.00;98669.25;4876805;29;20085;-91
2022/01/04 18:21:56;;;;;;;3.85;2.33;;;;;;;6.09;100.00;98694.75;4885966;29;20049;-92
2022/01/04 18:24:33;;;;;;;3.83;2.03;;;;;;;5.81;100.00;98648.13;4881321;29;20060;-92
2022/01/04 18:27:58;;;;;;;3.17;2.00;;;;;;;6.22;100.00;98705.41;4893455;29;20049;-94
2022/01/04 18:34:40;;;;;;;3.72;2.05;;;;;;;5.84;100.00;98637.41;4805180;29;20049;-90
2022/01/04 18:41:09;;;;;;;4.72;3.03;;;;;;;5.95;100.00;98674.50;4774335;30;20556;-89
2022/01/04 18:44:01;;;;;;;;;;;;;;;;;;;;;
2022/01/04 18:46:38;;;;;;;3.75;2.30;;;;;;;5.83;100.00;98666.41;4880691;29;20069;-92
2022/01/04 18:49:07;;;;;;;3.15;1.80;;;;;;;6.07;100.00;98688.72;4888659;29;20048;-91
2022/01/04 18:52:03;;;;;;;2.78;1.90;;;;;;;5.81;100.00;98656.00;4887133;29;20049;-92
2022/01/04 18:54:36;;;;;;;3.72;2.03;;;;;;;5.98;100.00;98695.31;4864254;29;20049;-92
2022/01/04 18:57:03;;;;;;;2.50;1.90;;;;;;;6.07;100.00;98706.28;4883040;29;20061;-90
2022/01/04 18:59:33;;;;;;;3.00;2.00;;;;;;;6.03;100.00;98694.22;4865758;29;20086;-90
2022/01/04 19:02:03;;;;;;;3.67;2.03;;;;;;;6.05;100.00;98681.88;4884233;29;20525;-89
2022/01/04 19:04:49;;;;;;;;;;;;;;;;;;;;;
2022/01/04 19:07:32;;;;;;;3.13;2.50;;;;;;;6.02;100.00;98672.38;4887017;29;20084;-90
2022/01/04 19:09:59;;;;;;;3.72;2.60;;;;;;;6.31;100.00;98724.13;4883124;29;20061;-92
2022/01/04 19:12:26;;;;;;;5.63;3.13;;;;;;;6.14;100.00;98691.88;4895108;29;20049;-89
2022/01/04 19:14:56;;;;;;;6.07;3.38;;;;;;;6.31;100.00;98708.38;4873059;29;20056;-90
2022/01/04 19:17:23;;;;;;;6.70;3.92;;;;;;;6.20;100.00;98688.88;4872737;29;20505;-91
2022/01/04 19:19:51;;;;;;;6.20;4.70;;;;;;;6.18;100.00;98673.19;4870351;29;20152;-90
2022/01/04 19:22:22;;;;;;;7.35;5.57;;;;;;;6.34;100.00;98692.44;4868811;29;20053;-90
2022/01/04 19:24:52;;;;;;;8.18;6.65;;;;;;;6.21;100.00;98687.97;4865895;29;20053;-89
2022/01/04 19:27:22;;;;;;;9.05;6.95;;;;;;;6.08;100.00;98686.94;4861490;29;20069;-90
2022/01/04 19:29:49;;;;;;;10.73;7.22;;;;;;;5.97;100.00;98666.53;4869676;29;20054;-91
2022/01/04 19:32:46;;;;;;;9.43;7.53;;;;;;;6.14;100.00;98694.50;4859557;29;20057;-90
2022/01/04 19:38:02;;;;;;;11.57;8.02;;;;;;;6.12;100.00;98691.97;4862704;29;20138;-92
2022/01/04 19:40:32;;;;;;;12.57;8.18;;;;;;;6.27;100.00;98717.38;4862215;29;20199;-89
2022/01/04 19:42:59;;;;;;;11.38;8.15;;;;;;;6.01;100.00;98670.66;4845479;29;20057;-89
2022/01/04 19:45:27;;;;;;;12.00;9.50;;;;;;;6.00;100.00;98671.59;4860343;29;20045;-89
2022/01/04 19:48:01;;;;;;;13.77;9.13;;;;;;;5.87;100.00;98658.28;4861906;29;20118;-90
2022/01/04 19:50:39;;;;;;;11.68;9.30;;;;;;;6.10;100.00;98693.81;4859052;29;20062;-89
2022/01/04 19:53:06;;;;;;;14.80;9.50;;;;;;;6.09;100.00;98705.28;4861645;29;20070;-89
2022/01/04 19:55:33;;;;;;;14.88;10.40;;;;;;;6.13;100.00;98713.84;4859305;29;20065;-89
2022/01/04 19:58:00;;;;;;;12.52;9.93;;;;;;;5.67;100.00;98634.88;4862683;29;20050;-90
2022/01/04 20:00:27;;;;;;;13.45;9.85;;;;;;;6.07;100.00;98701.03;4860304;29;20067;-89
2022/01/04 20:02:55;;;;;;;13.15;9.07;;;;;;;6.05;100.00;98695.00;4860722;29;20064;-89
2022/01/04 20:05:23;;;;;;;13.55;10.57;;;;;;;5.97;100.00;98672.66;4860294;29;20049;-90
2022/01/04 20:07:52;;;;;;;12.35;9.05;;;;;;;5.89;100.00;98666.94;4860726;29;20053;-89
2022/01/04 20:10:21;;;;;;;11.13;8.57;;;;;;;6.11;100.00;98697.31;4851758;29;20053;-90
2022/01/04 20:12:56;;;;;;;;;;;;;;;6.05;100.00;98689.75;4864425;29;20071;-88
2022/01/04 20:15:23;;;;;;;13.25;9.20;;;;;;;6.04;100.00;98701.19;4883696;29;19928;-89
2022/01/04 20:17:53;;;;;;;13.68;9.65;;;;;;;5.87;100.00;98674.03;4890805;29;20215;-88
2022/01/04 20:20:20;;;;;;;14.98;10.30;;;;;;;5.74;100.00;98654.63;4889063;29;20055;-88
2022/01/04 20:22:55;;;;;;;14.52;10.13;;;;;;;5.86;100.00;98674.13;4887940;29;20060;-90
2022/01/04 20:25:22;;;;;;;16.70;11.07;;;;;;;5.79;100.00;98664.91;4880411;29;20569;-89
2022/01/04 20:27:50;;;;;;;17.75;12.02;;;;;;;5.77;100.00;98672.84;4885960;29;20045;-89
2022/01/04 20:30:18;;;;;;;19.33;12.73;;;;;;;5.58;100.00;98643.28;4868802;29;20063;-89
2022/01/04 20:32:45;;;;;;;19.88;12.60;;;;;;;5.86;100.00;98680.22;4887017;29;20128;-88
2022/01/04 20:35:31;;;;;;;21.50;12.52;;;;;;;6.05;100.00;98719.50;4875014;29;20053;-89
2022/01/04 20:37:59;;;;;;;21.85;13.55;;;;;;;5.84;100.00;98684.69;4898883;29;20073;-90
2022/01/04 20:40:26;;;;;;;22.88;13.38;;;;;;;5.72;100.00;98659.13;4894106;29;20073;-89
2022/01/04 20:42:53;;;;;;;18.75;12.90;;;;;;;5.81;100.00;98663.88;4895747;29;20053;-89
2022/01/04 20:45:22;;;;;;;19.67;12.73;;;;;;;6.06;100.00;98691.44;4891410;29;20064;-89
2022/01/04 20:47:49;;;;;;;19.35;12.57;;;;;;;5.97;100.00;98679.69;4900094;29;20045;-90
2022/01/04 20:50:21;;;;;;;19.92;13.20;;;;;;;5.89;100.00;98674.84;4899055;29;20113;-90
2022/01/04 20:52:51;;;;;;;19.13;12.65;;;;;;;5.78;100.00;98648.28;4892774;29;20056;-89
2022/01/04 20:55:22;;;;;;;18.63;13.10;;;;;;;5.77;100.00;98653.63;4884302;29;20061;-89
2022/01/04 20:57:51;;;;;;;19.70;12.10;;;;;;;6.10;100.00;98706.13;4895893;29;20107;-89
2022/01/04 21:00:20;;;;;;;18.88;13.10;;;;;;;5.87;100.00;98675.81;4898216;29;20056;-89
2022/01/04 21:02:56;;;;;;;20.30;13.13;;;;;;;5.91;100.00;98675.59;4895337;29;20125;-90
2022/01/04 21:05:25;;;;;;;21.50;13.73;;;;;;;5.95;100.00;98686.78;4886042;29;20489;-87
2022/01/04 21:07:56;;;;;;;22.65;15.15;;;;;;;5.81;100.00;98657.78;4883286;29;20106;-88
2022/01/04 21:10:31;;;;;;;20.75;14.57;;;;;;;5.79;100.00;98647.34;4884028;29;20057;-88
2022/01/04 21:12:59;;;;;;;22.35;14.10;;;;;;;5.68;100.00;98626.06;4885989;29;20057;-88
2022/01/04 21:15:31;;;;;;;23.92;15.68;;;;;;;5.75;100.00;98642.34;4880314;29;20057;-88
2022/01/04 21:18:03;;;;;;;19.92;13.90;;;;;;;5.83;100.00;98661.16;4881037;29;20060;-89
2022/01/04 21:20:43;;;;;;;;;;;;;;;;;;;;;
2022/01/04 21:23:13;;;;;;;19.73;13.75;;;;;;;5.61;100.00;98622.94;4881674;29;20049;-88
2022/01/04 21:25:40;;;;;;;19.77;13.95;;;;;;;5.97;100.00;98688.41;4880258;29;20053;-91
2022/01/04 21:28:07;;;;;;;19.30;14.32;;;;;;;5.72;100.00;98648.63;4889249;29;20051;-90
2022/01/04 21:30:34;;;;;;;21.83;14.00;;;;;;;5.72;100.00;98659.13;4884495;29;20048;-89
2022/01/04 21:33:01;;;;;;;21.52;15.10;;;;;;;5.89;100.00;98698.47;4881056;29;20052;-89
2022/01/04 21:35:33;;;;;;;21.08;14.65;;;;;;;5.50;100.00;98627.09;4861848;29;20085;-90
2022/01/04 21:38:01;;;;;;;21.13;14.30;;;;;;;5.78;100.00;98669.31;4878064;29;20046;-89
2022/01/04 21:40:29;;;;;;;20.45;14.05;;;;;;;5.88;100.00;98686.28;4880109;29;20057;-90
2022/01/04 21:43:01;;;;;;;23.42;15.10;;;;;;;5.77;100.00;98674.63;4878758;29;20512;-89
2022/01/04 21:45:31;;;;;;;22.02;13.95;;;;;;;5.75;100.00;98663.34;4878516;29;20078;-90
2022/01/04 21:47:59;;;;;;;19.15;13.20;;;;;;;5.77;100.00;98666.75;4879739;29;20091;-90
2022/01/04 21:50:29;;;;;;;19.98;13.10;;;;;;;5.91;100.00;98685.25;4880578;29;20457;-91
2022/01/04 21:52:58;;;;;;;17.08;11.05;;;;;;;5.78;100.00;98661.41;4880214;29;20071;-89
2022/01/04 21:55:26;;;;;;;21.02;13.10;;;;;;;5.58;100.00;98635.41;4881818;29;20044;-90
2022/01/04 21:57:55;;;;;;;;;;;;;;;5.88;100.00;98685.38;4888044;29;20054;-89
2022/01/04 22:00:26;;;;;;;21.45;14.07;;;;;;;5.53;100.00;98646.13;4881800;29;19938;-90
2022/01/04 22:02:54;;;;;;;20.98;13.57;;;;;;;5.59;100.00;98652.84;4880033;29;20088;-90
2022/01/04 22:05:21;;;;;;;17.10;12.68;;;;;;;5.84;100.00;98697.84;4869494;29;20132;-89
2022/01/04 22:07:50;;;;;;;17.05;12.55;;;;;;;5.65;100.00;98663.03;4872546;29;20129;-88
2022/01/04 22:10:20;;;;;;;17.52;12.75;;;;;;;5.46;100.00;98636.06;4880991;29;20049;-89
2022/01/04 22:12:47;;;;;;;15.60;11.93;;;;;;;5.72;100.00;98664.38;4878454;29;20068;-88
2022/01/04 22:15:15;;;;;;;19.13;12.18;;;;;;;5.61;100.00;98649.22;4878758;29;20073;-88
2022/01/04 22:17:45;;;;;;;17.13;12.68;;;;;;;5.79;100.00;98672.78;4862902;29;20049;-88
2022/01/04 22:20:12;;;;;;;19.60;12.15;;;;;;;5.70;100.00;98665.38;4877108;29;20097;-90
2022/01/04 22:22:38;;;;;;;15.07;11.32;;;;;;;5.64;100.00;98654.31;4879330;29;20088;-90
2022/01/04 22:25:06;;;;;;;16.70;11.40;;;;;;;5.52;100.00;98628.69;4877486;29;20066;-91
2022/01/04 22:27:36;;;;;;;15.60;11.73;;;;;;;5.54;100.00;98637.34;4878690;29;20049;-93
2022/01/04 22:30:04;;;;;;;13.68;10.40;;;;;;;5.62;100.00;98636.94;4882213;29;20056;-91
2022/01/04 22:32:31;;;;;;;16.08;12.00;;;;;;;5.87;100.00;98694.19;4857918;29;20049;-90
2022/01/04 22:34:58;;;;;;;13.25;11.25;;;;;;;5.87;100.00;98697.69;4882610;29;20088;-90
2022/01/04 22:37:25;;;;;;;19.30;12.65;;;;;;;5.75;100.00;98685.22;4879296;29;20110;-88
2022/01/04 22:39:52;;;;;;;20.55;13.80;;;;;;;5.43;100.00;98634.44;4880829;29;20064;-92
2022/01/04 22:42:19;;;;;;;20.65;14.52;;;;;;;5.61;100.00;98664.97;4881826;29;20077;-91
2022/01/04 22:44:46;;;;;;;22.30;15.38;;;;;;;5.80;100.00;98703.38;4880139;29;20072;-92
2022/01/04 22:47:13;;;;;;;22.67;14.57;;;;;;;5.67;100.00;98692.66;4877248;29;20448;-90
2022/01/04 22:49:40;;;;;;;19.83;13.23;;;;;;;5.47;100.00;98659.63;4880943;29;20438;-91
2022/01/04 22:52:07;;;;;;;18.10;12.65;;;;;;;5.49;100.00;98651.66;4878459;29;20089;-90
2022/01/04 22:54:34;;;;;;;18.83;13.20;;;;;;;5.67;100.00;98692.66;4880837;29;20057;-90
2022/01/04 22:57:02;;;;;;;16.48;12.15;;;;;;;5.58;100.00;98659.88;4877635;29;20056;-91
2022/01/04 22:59:28;;;;;;;17.95;11.48;;;;;;;5.69;100.00;98672.41;4890440;29;20044;-92
2022/01/04 23:02:02;;;;;;;16.83;11.30;;;;;;;5.65;100.00;98657.78;4890984;29;20696;-91
2022/01/04 23:04:29;;;;;;;18.13;11.32;;;;;;;5.57;100.00;98646.81;4871288;29;20049;-91
2022/01/04 23:06:59;;;;;;;17.15;11.02;;;;;;;5.81;100.00;98669.13;4878101;29;20068;-90
2022/01/04 23:09:28;;;;;;;15.07;10.52;;;;;;;5.83;100.00;98680.38;4881377;29;20147;-90
2022/01/04 23:11:58;;;;;;;15.18;11.25;;;;;;;5.65;100.00;98652.53;4883665;29;20139;-90
2022/01/04 23:14:25;;;;;;;19.67;11.93;;;;;;;5.59;100.00;98640.56;4884243;29;20080;-90
2022/01/04 23:16:53;;;;;;;17.65;11.48;;;;;;;5.62;100.00;98647.44;4884601;29;20049;-91
2022/01/04 23:19:20;;;;;;;17.52;11.40;;;;;;;5.68;100.00;98652.34;4887424;29;20140;-89
2022/01/04 23:21:47;;;;;;;14.52;10.40;;;;;;;5.52;100.00;98604.22;4897718;29;20041;-91
2022/01/04 23:24:14;;;;;;;14.95;11.13;;;;;;;5.63;100.00;98633.38;4890514;29;20080;-90
2022/01/04 23:26:41;;;;;;;12.82;9.00;;;;;;;5.72;100.00;98667.00;4889548;29;20143;-90
2022/01/04 23:29:10;;;;;;;12.10;8.82;;;;;;;5.82;100.00;98677.88;4872738;29;20097;-90
2022/01/04 23:31:38;;;;;;;11.27;8.63;;;;;;;5.76;100.00;98660.66;4885353;29;20140;-90
2022/01/04 23:34:25;;;;;;;11.68;8.32;;;;;;;5.88;100.00;98673.13;4901156;29;20047;-91
2022/01/04 23:36:53;;;;;;;11.63;8.55;;;;;;;5.90;100.00;98663.41;4894134;29;20041;-90
2022/01/04 23:39:20;;;;;;;12.25;8.65;;;;;;;5.81;100.00;98642.88;4902503;29;20033;-91
2022/01/04 23:41:47;;;;;;;11.30;8.18;;;;;;;5.86;100.00;98645.22;4898955;29;20045;-91
2022/01/04 23:44:13;;;;;;;13.70;9.50;;;;;;;5.85;100.00;98660.13;4885772;29;20100;-91
2022/01/04 23:46:42;;;;;;;11.00;8.23;;;;;;;5.83;100.00;98662.00;4880448;29;20140;-89
2022/01/04 23:49:09;;;;;;;11.32;8.32;;;;;;;6.06;100.00;98680.94;4875631;29;20104;-90
2022/01/04 23:51:36;;;;;;;11.80;8.15;;;;;;;6.08;100.00;98681.69;4889203;29;20052;-89
2022/01/04 23:54:03;;;;;;;9.60;7.50;;;;;;;5.86;100.00;98645.22;4883023;29;20053;-91
2022/01/04 23:56:30;;;;;;;10.55;7.40;;;;;;;6.05;100.00;98666.09;4879506;29;20058;-89
2022/01/04 23:58:57;;;;;;;8.60;6.57;;;;;;;5.68;100.00;98597.19;4881698;29;20083;-89
